Wilsonville, Nebraska
Current Conditions -  °F | °C
As of 2:53 PM on Thursday 23 Oct 2014 (Local Time) from KMCK Reporting Station
Clear Clear  
Wind Chill: 74°   Ceiling: Unl
Heat Index: 74°   Visibility: 10mi
Dew Point: 46°   Wind: 12mph
Humidity: 37%   Direction: 180°S
Pressure: 30.04"   Gusts: NA
Location:  40.11°N, 100.11°W
Report Text: KMCK 231953Z AUTO 18010KT 10SM CLR 23/08 A3004 RMK AO2 SLP164 T02330078
Loading
Personal Weather Stations






























Interactive Weather Map
Tropical Storm Tracking
New forecast layout! Learn more

10-Day Weather Forecast

Advertisements
Track Severe Weather on mobile